createdAt,value
2022-12-05T00:02:23.581Z,62.40
2022-12-05T00:04:50.267Z,60.85
2022-12-05T00:07:16.821Z,58.78
2022-12-05T00:09:43.435Z,61.50
2022-12-05T00:17:35.161Z,59.47
2022-12-05T00:20:02.450Z,63.22
2022-12-05T00:22:29.412Z,55.53
2022-12-05T00:24:55.947Z,59.95
2022-12-05T00:27:22.617Z,57.17
2022-12-05T00:29:49.183Z,57.28
2022-12-05T00:32:15.841Z,59.35
2022-12-05T00:34:42.401Z,67.03
2022-12-05T00:37:08.980Z,53.78
2022-12-05T00:39:35.615Z,62.35
2022-12-05T00:47:22.128Z,46.88
2022-12-05T00:49:48.707Z,60.05
2022-12-05T00:52:15.534Z,58.38
2022-12-05T00:54:42.105Z,62.30
2022-12-05T00:57:08.679Z,58.35
2022-12-05T00:59:35.243Z,64.55
2022-12-05T01:02:01.897Z,58.53
2022-12-05T01:04:28.563Z,53.70
2022-12-05T01:06:56.922Z,60.22
2022-12-05T01:09:24.083Z,64.70
2022-12-05T01:11:59.653Z,57.53
2022-12-05T01:14:26.624Z,76.05
2022-12-05T01:16:54.749Z,61.90
2022-12-05T01:19:26.635Z,71.43
2022-12-05T01:21:53.544Z,69.90
2022-12-05T01:24:21.334Z,69.95
2022-12-05T01:27:04.038Z,70.70
2022-12-05T01:29:30.603Z,68.20
2022-12-05T01:31:57.258Z,66.15
2022-12-05T01:34:24.021Z,67.57
2022-12-05T01:36:50.674Z,67.22
2022-12-05T01:39:17.329Z,64.43
2022-12-05T01:44:27.830Z,64.72
2022-12-05T01:46:55.139Z,65.45
2022-12-05T01:49:30.527Z,59.10
2022-12-05T01:52:01.438Z,61.45
2022-12-05T01:54:28.614Z,59.13
2022-12-05T01:59:29.913Z,67.80
2022-12-05T02:01:56.592Z,60.35
2022-12-05T02:04:23.308Z,54.55
2022-12-05T02:06:49.917Z,49.40
2022-12-05T02:09:16.489Z,69.22
2022-12-05T02:14:32.725Z,63.15
2022-12-05T02:17:20.999Z,59.03
2022-12-05T02:19:53.308Z,50.60
2022-12-05T02:22:53.412Z,58.38
2022-12-05T02:25:25.108Z,56.47
2022-12-05T02:28:10.028Z,53.17
2022-12-05T02:30:43.654Z,46.60
2022-12-05T02:33:21.916Z,46.75
2022-12-05T02:35:54.979Z,42.83
2022-12-05T02:46:38.285Z,46.50
2022-12-05T02:49:09.061Z,48.88
2022-12-05T02:54:12.730Z,44.97
2022-12-05T03:08:18.993Z,44.67
2022-12-05T03:10:46.155Z,45.92
2022-12-05T03:13:25.548Z,48.92
2022-12-05T03:15:55.477Z,50.08
2022-12-05T03:18:28.435Z,42.55
2022-12-05T03:21:14.695Z,45.85
2022-12-05T03:26:17.812Z,48.33
2022-12-05T03:29:10.858Z,51.92
2022-12-05T03:31:58.524Z,45.92
2022-12-05T03:34:55.871Z,48.95
2022-12-05T03:37:47.982Z,42.00
2022-12-05T03:40:36.927Z,45.95
2022-12-05T03:43:10.741Z,50.63
2022-12-05T03:46:23.442Z,47.63
2022-12-05T03:49:03.730Z,47.13
2022-12-05T03:51:34.995Z,51.60
2022-12-05T03:54:24.940Z,49.85
2022-12-05T03:57:06.069Z,50.23
2022-12-05T03:59:37.004Z,54.22
2022-12-05T04:02:09.879Z,45.33
2022-12-05T04:07:07.780Z,52.85
2022-12-05T04:09:52.286Z,55.55
2022-12-05T04:12:23.535Z,44.97
2022-12-05T04:15:06.346Z,47.60
2022-12-05T04:17:53.428Z,51.97
2022-12-05T04:28:47.923Z,55.10
2022-12-05T04:31:26.477Z,50.80
2022-12-05T04:34:06.845Z,47.63
2022-12-05T04:36:50.416Z,56.22
2022-12-05T04:39:25.018Z,57.22
2022-12-05T04:42:01.915Z,47.55
2022-12-05T04:44:34.308Z,49.08
2022-12-05T04:50:23.860Z,48.00
2022-12-05T04:52:53.516Z,47.20
2022-12-05T04:55:25.949Z,47.50
2022-12-05T04:58:16.216Z,44.65
2022-12-05T05:01:03.985Z,53.00
2022-12-05T05:03:35.370Z,52.03
2022-12-05T05:06:02.725Z,44.22
2022-12-05T05:08:29.955Z,48.25
2022-12-05T05:13:42.720Z,46.85
2022-12-05T05:16:18.282Z,48.80
2022-12-05T05:18:49.489Z,49.58
2022-12-05T05:21:23.724Z,54.05
2022-12-05T05:23:50.550Z,50.25
2022-12-05T05:26:18.435Z,46.83
2022-12-05T05:28:45.626Z,45.60
2022-12-05T05:31:12.862Z,47.83
2022-12-05T05:33:39.508Z,44.80
2022-12-05T05:36:08.131Z,46.85
2022-12-05T05:38:47.321Z,45.70
2022-12-05T05:43:44.940Z,45.35
2022-12-05T05:46:12.866Z,43.78
2022-12-05T05:48:39.863Z,48.38
2022-12-05T05:51:07.962Z,51.53
2022-12-05T05:53:34.595Z,47.47
2022-12-05T05:56:09.786Z,44.17
2022-12-05T05:58:36.899Z,42.53
2022-12-05T06:01:08.078Z,50.35
2022-12-05T06:03:35.351Z,45.53
2022-12-05T06:06:04.790Z,43.58
2022-12-05T06:08:33.084Z,47.10
2022-12-05T06:11:06.845Z,45.70
2022-12-05T06:13:33.528Z,51.88
2022-12-05T06:16:00.279Z,49.95
2022-12-05T06:18:26.978Z,50.22
2022-12-05T06:20:58.020Z,48.33
2022-12-05T06:23:25.687Z,50.80
2022-12-05T06:28:33.055Z,44.60
2022-12-05T06:30:59.708Z,43.65
2022-12-05T06:33:26.307Z,40.90
2022-12-05T06:36:14.387Z,36.28
2022-12-05T06:38:42.474Z,41.60
2022-12-05T06:41:12.263Z,42.55
2022-12-05T06:51:43.312Z,40.22
2022-12-05T06:54:12.397Z,46.38
2022-12-05T06:56:39.062Z,43.25
2022-12-05T06:59:05.982Z,48.10
2022-12-05T07:09:51.579Z,37.10
2022-12-05T07:12:19.229Z,34.63
2022-12-05T07:14:48.188Z,37.35
2022-12-05T07:17:15.972Z,38.72
2022-12-05T07:19:42.590Z,41.22
2022-12-05T07:22:15.191Z,36.08
2022-12-05T07:24:42.746Z,35.92
2022-12-05T07:27:09.457Z,32.63
2022-12-05T07:29:36.099Z,31.10
2022-12-05T07:32:03.094Z,30.60
2022-12-05T07:39:58.975Z,27.95
2022-12-05T07:42:25.776Z,25.65
2022-12-05T07:44:52.320Z,31.42
2022-12-05T07:47:18.989Z,28.60
2022-12-05T07:49:45.750Z,30.40
2022-12-05T07:52:12.326Z,31.02
2022-12-05T07:54:38.892Z,32.08
2022-12-05T07:57:05.695Z,33.17
2022-12-05T07:59:34.458Z,31.75
2022-12-05T08:02:01.220Z,34.45
2022-12-05T08:04:28.149Z,33.17
2022-12-05T08:06:54.828Z,32.33
2022-12-05T08:09:21.385Z,31.35
2022-12-05T08:11:52.406Z,29.80
2022-12-05T08:14:19.529Z,27.25
2022-12-05T08:16:46.351Z,24.45
2022-12-05T08:19:13.505Z,22.10
2022-12-05T08:21:40.570Z,30.85
2022-12-05T08:24:07.795Z,29.35
2022-12-05T08:26:35.745Z,24.27
2022-12-05T08:29:08.171Z,30.17
2022-12-05T08:31:40.711Z,25.30
2022-12-05T08:34:07.492Z,23.75
2022-12-05T08:36:34.120Z,22.92
2022-12-05T08:39:03.907Z,24.77
2022-12-05T08:41:31.033Z,24.10
2022-12-05T08:43:59.599Z,25.98
2022-12-05T08:46:32.793Z,23.50
2022-12-05T08:49:00.861Z,25.38
2022-12-05T08:51:27.552Z,24.00
2022-12-05T08:53:56.193Z,28.50
2022-12-05T08:56:26.815Z,33.45
2022-12-05T08:58:58.470Z,30.52
2022-12-05T09:01:31.930Z,33.10
2022-12-05T09:04:04.520Z,26.90
2022-12-05T09:06:31.913Z,27.75
2022-12-05T09:09:00.869Z,32.28
2022-12-05T09:11:30.487Z,32.55
2022-12-05T09:13:58.308Z,29.55
2022-12-05T09:16:37.591Z,34.25
2022-12-05T09:19:25.677Z,23.63
2022-12-05T09:21:52.331Z,29.08
2022-12-05T09:24:18.964Z,28.60
2022-12-05T09:26:46.125Z,25.52
2022-12-05T09:29:17.738Z,23.35
2022-12-05T09:31:46.788Z,27.85
2022-12-05T09:34:19.944Z,23.00
2022-12-05T09:36:55.819Z,25.38
2022-12-05T09:39:25.106Z,23.30
2022-12-05T09:42:46.963Z,22.13
2022-12-05T09:45:48.533Z,21.88
2022-12-05T09:48:16.720Z,20.92
2022-12-05T09:51:11.033Z,21.15
2022-12-05T09:53:39.943Z,20.00
2022-12-05T09:56:09.632Z,21.27
2022-12-05T09:58:40.869Z,19.75
2022-12-05T10:01:31.373Z,20.83
2022-12-05T10:04:22.985Z,20.67
2022-12-05T10:07:27.143Z,21.50
2022-12-05T10:10:17.061Z,19.35
2022-12-05T10:13:00.117Z,20.98
2022-12-05T10:15:31.171Z,23.45
2022-12-05T10:18:01.584Z,20.65
2022-12-05T10:20:38.038Z,22.38
2022-12-05T10:23:23.147Z,19.98
2022-12-05T10:26:00.298Z,22.77
2022-12-05T10:28:45.446Z,19.65
2022-12-05T10:31:14.668Z,26.52
2022-12-05T10:33:44.971Z,19.42
2022-12-05T10:36:13.960Z,21.10
2022-12-05T10:38:42.575Z,19.52
2022-12-05T10:41:11.896Z,18.23
2022-12-05T10:43:41.262Z,17.42
2022-12-05T10:46:10.657Z,18.55
2022-12-05T10:48:41.733Z,16.25
2022-12-05T10:51:13.469Z,19.83
2022-12-05T10:53:45.326Z,17.15
2022-12-05T10:56:37.740Z,18.35
2022-12-05T10:59:05.347Z,17.70
2022-12-05T11:01:32.666Z,18.17
2022-12-05T11:04:02.077Z,16.75
2022-12-05T11:06:31.207Z,18.50
2022-12-05T11:09:05.475Z,16.88
2022-12-05T11:11:33.608Z,13.05
2022-12-05T11:14:03.115Z,15.75
2022-12-05T11:16:33.443Z,12.98
2022-12-05T11:19:21.957Z,14.02
2022-12-05T11:21:55.077Z,14.68
2022-12-05T11:24:30.772Z,14.63
2022-12-05T11:27:15.770Z,13.38
2022-12-05T11:29:44.201Z,13.80
2022-12-05T11:32:22.759Z,13.70
2022-12-05T11:35:08.327Z,11.35
2022-12-05T11:37:40.915Z,13.32
2022-12-05T11:40:36.491Z,12.63
2022-12-05T11:43:29.100Z,12.73
2022-12-05T11:46:04.755Z,11.40
2022-12-05T11:48:31.416Z,14.30
2022-12-05T11:51:09.989Z,12.32
2022-12-05T11:53:42.640Z,11.40
2022-12-05T11:56:33.658Z,12.50
2022-12-05T11:59:34.890Z,11.57
2022-12-05T12:02:12.690Z,13.00
2022-12-05T12:05:16.975Z,15.35
2022-12-05T12:08:01.926Z,12.32
2022-12-05T12:11:02.829Z,14.52
2022-12-05T12:14:01.501Z,14.02
2022-12-05T12:16:58.563Z,16.10
2022-12-05T12:19:37.207Z,13.75
2022-12-05T12:22:15.768Z,12.10
2022-12-05T12:25:08.326Z,13.20
2022-12-05T12:27:45.682Z,12.82
2022-12-05T12:30:15.458Z,14.48
2022-12-05T12:33:11.141Z,17.48
2022-12-05T12:36:06.669Z,15.55
2022-12-05T12:38:39.353Z,16.10
2022-12-05T12:41:20.788Z,16.67
2022-12-05T12:44:15.144Z,21.88
2022-12-05T12:46:44.207Z,20.55
2022-12-05T12:49:32.692Z,22.60
2022-12-05T12:52:02.908Z,23.30
2022-12-05T12:55:05.558Z,19.35
2022-12-05T12:57:51.085Z,19.90
2022-12-05T13:00:23.909Z,21.27
2022-12-05T13:03:17.730Z,19.50
2022-12-05T13:05:58.082Z,17.50
2022-12-05T13:11:04.124Z,19.85
2022-12-05T13:13:37.181Z,22.55
2022-12-05T13:16:07.631Z,23.35
2022-12-05T13:18:35.132Z,20.98
2022-12-05T13:21:05.782Z,18.42
2022-12-05T13:23:36.144Z,22.65
2022-12-05T13:26:08.895Z,23.17
2022-12-05T13:28:44.622Z,19.30
2022-12-05T13:31:14.085Z,22.52
2022-12-05T13:33:49.351Z,19.52
2022-12-05T13:36:38.409Z,18.10
2022-12-05T13:39:31.932Z,20.88
2022-12-05T13:42:18.017Z,20.30
2022-12-05T13:44:53.887Z,17.30
2022-12-05T13:47:28.483Z,19.92
2022-12-05T13:50:09.439Z,16.90
2022-12-05T13:52:49.176Z,20.35
2022-12-05T13:55:35.365Z,17.27
2022-12-05T13:58:22.594Z,20.60
2022-12-05T14:00:52.786Z,20.45
2022-12-05T14:03:22.112Z,18.70
2022-12-05T14:05:57.492Z,18.33
2022-12-05T14:08:35.881Z,19.83
2022-12-05T14:11:05.629Z,18.17
2022-12-05T14:13:33.496Z,21.00
2022-12-05T14:16:26.130Z,21.75
2022-12-05T14:19:02.420Z,18.17
2022-12-05T14:21:45.137Z,23.58
2022-12-05T14:24:35.949Z,21.05
2022-12-05T14:29:55.670Z,23.98
2022-12-05T14:32:25.631Z,23.17
2022-12-05T14:35:01.463Z,26.17
2022-12-05T14:37:34.647Z,22.92
2022-12-05T14:40:03.768Z,26.65
2022-12-05T14:42:41.914Z,23.33
2022-12-05T14:45:39.387Z,27.30
2022-12-05T14:48:15.078Z,23.52
2022-12-05T14:50:46.748Z,28.00
2022-12-05T14:53:27.174Z,23.05
2022-12-05T14:56:20.793Z,26.92
2022-12-05T14:58:58.963Z,27.10
2022-12-05T15:01:55.506Z,30.80
2022-12-05T15:04:30.890Z,27.63
2022-12-05T15:07:03.016Z,30.70
2022-12-05T15:09:37.441Z,29.63
2022-12-05T15:12:10.525Z,27.75
2022-12-05T15:14:45.552Z,29.15
2022-12-05T15:17:17.178Z,31.73
2022-12-05T15:19:56.118Z,33.15
2022-12-05T15:22:25.426Z,32.38
2022-12-05T15:24:52.075Z,36.50
2022-12-05T15:27:18.826Z,35.97
2022-12-05T15:29:45.493Z,35.65
2022-12-05T15:32:12.090Z,37.75
2022-12-05T15:34:47.118Z,37.25
2022-12-05T15:37:31.166Z,38.80
2022-12-05T15:40:14.222Z,36.08
2022-12-05T15:42:40.854Z,40.17
2022-12-05T15:45:13.459Z,38.88
2022-12-05T15:47:44.089Z,40.88
2022-12-05T15:50:14.954Z,42.05
2022-12-05T15:52:51.370Z,40.50
2022-12-05T15:55:24.095Z,41.55
2022-12-05T15:57:55.097Z,43.10
2022-12-05T16:00:25.886Z,37.28
2022-12-05T16:05:22.575Z,37.10
2022-12-05T16:07:50.144Z,35.85
2022-12-05T16:10:17.728Z,34.90
2022-12-05T16:12:44.397Z,34.30
2022-12-05T16:15:25.200Z,33.65
2022-12-05T16:20:24.027Z,40.08
2022-12-05T16:22:54.209Z,37.42
2022-12-05T16:25:27.400Z,35.25
2022-12-05T16:28:20.986Z,32.00
2022-12-05T16:31:14.652Z,38.90
2022-12-05T16:33:43.706Z,37.42
2022-12-05T16:36:12.373Z,40.15
2022-12-05T16:38:44.949Z,45.10
2022-12-05T16:41:12.638Z,32.60
2022-12-05T16:43:39.257Z,42.03
2022-12-05T16:46:12.889Z,40.42
2022-12-05T16:48:40.702Z,38.00
2022-12-05T16:51:13.499Z,38.60
2022-12-05T16:53:41.995Z,35.45
2022-12-05T16:56:13.843Z,43.05
2022-12-05T16:58:40.482Z,42.53
2022-12-05T17:01:07.825Z,34.78
2022-12-05T17:03:35.866Z,46.72
2022-12-05T17:06:03.100Z,42.67
2022-12-05T17:08:29.847Z,44.78
2022-12-05T17:10:56.597Z,43.05
2022-12-05T17:13:23.328Z,41.75
2022-12-05T17:15:50.184Z,40.78
2022-12-05T17:18:20.417Z,47.22
2022-12-05T17:20:54.868Z,41.05
2022-12-05T17:23:21.600Z,38.35
2022-12-05T17:25:53.449Z,39.60
2022-12-05T17:28:20.552Z,45.72
2022-12-05T17:30:47.231Z,47.00
2022-12-05T17:33:15.947Z,44.03
2022-12-05T17:35:42.634Z,44.03
2022-12-05T17:38:10.678Z,44.50
2022-12-05T17:40:38.445Z,46.60
2022-12-05T17:43:05.756Z,41.25
2022-12-05T17:45:33.342Z,49.08
2022-12-05T17:48:00.132Z,44.95
2022-12-05T17:50:27.284Z,43.70
2022-12-05T17:52:56.026Z,50.88
2022-12-05T17:55:28.319Z,45.90
2022-12-05T17:57:55.350Z,38.78
2022-12-05T18:00:23.315Z,38.55
2022-12-05T18:02:50.556Z,40.50
2022-12-05T18:05:17.536Z,40.78
2022-12-05T18:07:45.252Z,44.17
2022-12-05T18:10:16.377Z,42.85
2022-12-05T18:12:43.519Z,44.17
2022-12-05T18:15:10.693Z,41.83
2022-12-05T18:17:37.286Z,42.25
2022-12-05T18:20:05.226Z,44.78
2022-12-05T18:22:31.890Z,44.90
2022-12-05T18:24:59.017Z,47.67
2022-12-05T18:27:25.845Z,42.55
2022-12-05T18:29:52.590Z,42.63
2022-12-05T18:32:19.790Z,38.60
2022-12-05T18:34:46.413Z,44.45
2022-12-05T18:37:13.014Z,42.70
2022-12-05T18:39:39.809Z,41.60
2022-12-05T18:42:11.774Z,39.85
2022-12-05T18:44:41.605Z,40.97
2022-12-05T18:47:08.368Z,39.45
2022-12-05T18:49:35.053Z,36.58
2022-12-05T18:52:01.667Z,37.50
2022-12-05T18:54:28.269Z,39.00
2022-12-05T18:56:54.804Z,38.55
2022-12-05T18:59:22.364Z,38.97
2022-12-05T19:01:50.002Z,40.50
2022-12-05T19:04:19.147Z,41.42
2022-12-05T19:06:53.680Z,37.95
2022-12-05T19:09:22.120Z,39.92
2022-12-05T19:11:51.191Z,37.03
2022-12-05T19:14:19.307Z,37.03
2022-12-05T19:16:48.132Z,34.50
2022-12-05T19:19:15.110Z,34.90
2022-12-05T19:21:42.260Z,31.55
2022-12-05T19:24:12.252Z,36.10
2022-12-05T19:26:39.145Z,32.85
2022-12-05T19:29:08.364Z,32.35
2022-12-05T19:31:38.043Z,34.65
2022-12-05T19:34:05.958Z,36.40
2022-12-05T19:36:40.720Z,32.95
2022-12-05T19:39:30.235Z,33.60
2022-12-05T19:42:00.172Z,34.10
2022-12-05T19:44:27.247Z,32.67
2022-12-05T19:46:55.124Z,34.50
2022-12-05T19:49:23.049Z,36.35
2022-12-05T19:51:49.855Z,38.28
2022-12-05T19:54:21.752Z,36.72
2022-12-05T19:56:48.327Z,35.95
2022-12-05T19:59:16.654Z,33.05
2022-12-05T20:01:44.630Z,32.55
2022-12-05T20:04:13.681Z,37.92
2022-12-05T20:06:45.331Z,35.85
2022-12-05T20:09:13.601Z,34.70
2022-12-05T20:11:41.540Z,37.35
2022-12-05T20:14:10.291Z,34.05
2022-12-05T20:16:37.102Z,37.42
2022-12-05T20:19:04.384Z,36.05
2022-12-05T20:21:32.613Z,35.50
2022-12-05T20:24:00.809Z,36.42
2022-12-05T20:26:39.179Z,37.65
2022-12-05T20:29:06.646Z,38.63
2022-12-05T20:31:38.866Z,41.00
2022-12-05T20:34:06.148Z,36.95
2022-12-05T20:36:34.326Z,39.15
2022-12-05T20:39:10.153Z,33.85
2022-12-05T20:41:36.834Z,36.17
2022-12-05T20:44:05.567Z,38.33
2022-12-05T20:46:32.593Z,43.40
2022-12-05T20:48:59.693Z,42.03
2022-12-05T20:51:31.275Z,39.75
2022-12-05T20:53:59.626Z,36.92
2022-12-05T20:56:28.695Z,34.50
2022-12-05T20:58:57.431Z,44.90
2022-12-05T21:01:25.351Z,42.33
2022-12-05T21:03:53.427Z,36.38
2022-12-05T21:06:25.307Z,38.60
2022-12-05T21:08:52.811Z,36.95
2022-12-05T21:11:19.783Z,38.92
2022-12-05T21:13:46.369Z,34.88
2022-12-05T21:16:18.423Z,37.33
2022-12-05T21:18:45.648Z,33.30
2022-12-05T21:21:14.958Z,37.35
2022-12-05T21:23:42.716Z,35.42
2022-12-05T21:26:12.693Z,34.55
2022-12-05T21:28:39.545Z,31.73
2022-12-05T21:31:07.982Z,31.15
2022-12-05T21:33:35.293Z,35.58
2022-12-05T21:36:01.939Z,33.63
2022-12-05T21:38:28.544Z,38.53
2022-12-05T21:40:55.206Z,32.50
2022-12-05T21:43:21.782Z,35.08
2022-12-05T21:45:53.216Z,32.83
2022-12-05T21:48:21.107Z,29.50
2022-12-05T21:50:47.998Z,33.10
2022-12-05T21:53:15.046Z,33.72
2022-12-05T21:55:43.216Z,31.33
2022-12-05T21:58:12.832Z,32.60
2022-12-05T22:00:39.695Z,31.38
2022-12-05T22:03:07.070Z,31.40
2022-12-05T22:05:33.760Z,29.88
2022-12-05T22:08:04.824Z,29.67
2022-12-05T22:13:07.283Z,30.30
2022-12-05T22:15:33.924Z,27.00
2022-12-05T22:18:00.611Z,26.10
2022-12-05T22:20:27.270Z,27.70
2022-12-05T22:22:53.850Z,24.20
2022-12-05T22:25:20.813Z,26.90
2022-12-05T22:27:47.402Z,24.65
2022-12-05T22:30:14.040Z,30.55
2022-12-05T22:32:40.619Z,25.73
2022-12-05T22:35:07.528Z,24.10
2022-12-05T22:37:34.321Z,22.95
2022-12-05T22:40:01.221Z,25.70
2022-12-05T22:42:28.254Z,25.58
2022-12-05T22:44:54.871Z,26.75
2022-12-05T22:47:21.577Z,27.30
2022-12-05T22:49:48.151Z,25.77
2022-12-05T22:52:18.370Z,28.33
2022-12-05T22:54:44.917Z,25.65
2022-12-05T22:57:11.489Z,27.52
2022-12-05T22:59:38.075Z,27.70
2022-12-05T23:02:04.671Z,32.88
2022-12-05T23:04:31.244Z,27.75
2022-12-05T23:06:57.901Z,28.23
2022-12-05T23:09:24.443Z,26.75
2022-12-05T23:11:51.059Z,30.50
2022-12-05T23:14:17.861Z,25.33
2022-12-05T23:16:45.595Z,26.25
2022-12-05T23:19:12.314Z,28.92
2022-12-05T23:21:40.088Z,31.60
2022-12-05T23:24:09.575Z,30.30
2022-12-05T23:26:45.778Z,32.95
2022-12-05T23:29:13.558Z,33.25
2022-12-05T23:31:41.265Z,28.50
2022-12-05T23:34:08.432Z,30.65
2022-12-05T23:36:35.615Z,32.85
2022-12-05T23:39:02.558Z,39.13
2022-12-05T23:41:29.174Z,33.40
2022-12-05T23:43:56.704Z,35.85
2022-12-05T23:46:25.286Z,34.45
2022-12-05T23:48:51.989Z,29.90
2022-12-05T23:51:20.800Z,35.53
2022-12-05T23:53:48.320Z,36.25
2022-12-05T23:56:19.286Z,34.45
2022-12-05T23:58:46.586Z,35.60
